EA3GYL La Torregassa ES current weather conditions

sailwx.info

Wind from 201 at 6 knots gusting 12

Air temperature 29.4° C
Dewpoint 17.3° C

Last reported at 2014-Jul-31 14:45 UTC.
Time now 2014-Jul-31 15:39 UTC

Location: N 41°17' E 001°31'.
View on Google Maps.

See reports from other nearby stations

  
Tides and Currents Weather Stations Pressure Air Temp Water Temp Dewpoint Dewpoint Depression Visibility Wind Speed Wind Dir Waves Ship Positions
date/time (UTC)wind fromknots sea level pressurealtimeterstation pressurevisibilityair tempwater tempwave heightnotes
2014-Jul-31 14:45 201 6 gusting 12 29.4
2014-Jul-31 14:30 181 6 gusting 11 29.4
2014-Jul-31 14:15 188 6 gusting 13 29.4
2014-Jul-31 14:00 203 6 gusting 13 29.4
2014-Jul-31 13:45 219 6 gusting 11 29.4
2014-Jul-31 13:30 217 6 gusting 11 29.4
2014-Jul-31 13:15 177 6 gusting 11 30.0
2014-Jul-31 13:00 179 6 gusting 11 29.4
2014-Jul-31 12:45 171 6 gusting 11 29.4
2014-Jul-31 12:30 169 6 gusting 13 28.9
2014-Jul-31 12:15 174 6 gusting 12 28.3
2014-Jul-31 12:00 182 6 gusting 11 28.9
2014-Jul-31 11:45 190 6 gusting 13 28.9
2014-Jul-31 11:30 160 6 gusting 13 29.4
2014-Jul-31 11:15 138 6 gusting 14 29.4
2014-Jul-31 11:00 141 6 gusting 12 28.9
2014-Jul-31 10:45 135 6 gusting 12 28.3
2014-Jul-31 10:30 155 6 gusting 13 28.3
2014-Jul-31 10:15 151 5 gusting 11 27.8
2014-Jul-31 10:00 155 4 gusting 8 27.8
2014-Jul-31 09:45 142 4 gusting 8 27.2
2014-Jul-31 09:30 164 4 gusting 7 27.8
2014-Jul-31 09:15 168 2 gusting 7 27.8
2014-Jul-31 09:00 111 27.2
2014-Jul-31 08:45 151 0 gusting 3 26.7
2014-Jul-31 08:30 124 2 gusting 4 25.6
2014-Jul-31 08:15 111 0 gusting 4 25.0
2014-Jul-30 23:15 348 21.1
2014-Jul-30 23:00 333 21.1
2014-Jul-30 22:45 21.1
2014-Jul-30 22:30 21.1
2014-Jul-30 22:15 279 21.1
2014-Jul-30 22:00 21.1
2014-Jul-30 21:45 279 21.1
2014-Jul-30 21:15 280 22.2
2014-Jul-30 21:00 266 22.2
2014-Jul-30 20:45 229 22.8
2014-Jul-30 20:30 264 0 gusting 3 23.3
2014-Jul-30 20:15 259 1 gusting 3 23.3
2014-Jul-30 20:00 232 1 gusting 3 23.3
2014-Jul-30 19:45 249 1 gusting 3 23.3
2014-Jul-30 19:30 245 2 gusting 4 23.9
2014-Jul-30 19:15 224 0 gusting 2 24.4
2014-Jul-30 19:00 248 2 gusting 4 25.0
2014-Jul-30 18:45 251 2 gusting 6 26.1
2014-Jul-30 18:30 248 2 gusting 7 26.7
2014-Jul-30 18:15 245 3 gusting 8 26.7
2014-Jul-30 18:00 242 5 gusting 9 26.7
2014-Jul-30 17:45 243 4 gusting 10 27.2
2014-Jul-30 17:30 236 4 gusting 8 27.2
2014-Jul-30 17:15 245 4 gusting 7 27.8
2014-Jul-30 17:00 244 4 gusting 8 27.8
2014-Jul-30 16:45 231 4 gusting 8 28.3
2014-Jul-30 16:30 190 5 gusting 10 28.3
2014-Jul-30 16:15 171 5 gusting 9 28.3
2014-Jul-30 16:00 187 5 gusting 10 28.3
2014-Jul-30 15:45 189 6 gusting 9 28.9
2014-Jul-30 15:30 184 6 gusting 10 29.4
2014-Jul-30 15:15 147 6 gusting 11 29.4
2014-Jul-30 15:00 146 6 gusting 10 29.4
2014-Jul-30 14:45 144 4 gusting 11 30.0
2014-Jul-30 14:30 166 3 gusting 9 30.0
2014-Jul-30 14:15 166 4 gusting 11 30.0
2014-Jul-30 14:00 183 5 gusting 10 29.4
2014-Jul-30 13:45 172 6 gusting 11 28.9
2014-Jul-30 13:30 150 5 gusting 10 28.9
2014-Jul-30 13:15 134 6 gusting 13 28.3
2014-Jul-30 13:00 133 6 gusting 12 28.9
2014-Jul-30 12:45 139 5 gusting 12 28.9
2014-Jul-30 12:30 126 6 gusting 11 28.3
2014-Jul-30 12:15 134 7 gusting 14 28.9
2014-Jul-30 12:00 127 6 gusting 13 28.9
2014-Jul-30 11:45 132 4 gusting 13 29.4
2014-Jul-30 11:30 010 1 gusting 3 28.9
2014-Jul-30 11:15 230 4 gusting 19 28.9
2014-Jul-30 11:00 158 2 gusting 6 28.3
2014-Jul-30 10:45 247 2 gusting 6 28.3
2014-Jul-30 10:30 277 2 gusting 6 27.8
2014-Jul-30 10:15 249 1 gusting 6 27.8
2014-Jul-30 10:00 348 1 gusting 5 26.7
2014-Jul-30 09:45 310 2 gusting 6 26.1
2014-Jul-30 09:30 287 3 gusting 8 25.6
2014-Jul-30 09:15 264 4 gusting 9 25.6
2014-Jul-30 09:00 270 4 gusting 7 25.0
2014-Jul-30 08:45 250 3 gusting 7 24.4
2014-Jul-30 08:30 294 3 gusting 6 23.9
2014-Jul-30 08:15 322 3 gusting 6 23.9
2014-Jul-30 08:00 283 3 gusting 6 23.9
2014-Jul-30 07:45 281 1 gusting 6 23.9
2014-Jul-30 07:30 131 23.3
2014-Jul-30 07:15 104 0 gusting 1 21.7
2014-Jul-30 07:00 121 0 gusting 5 21.7
2014-Jul-30 06:45 114 0 gusting 2 21.1
2014-Jul-30 06:30 110 0 gusting 3 20.6
2014-Jul-30 06:15 226 20.0
2014-Jul-29 23:15 354 20.6
2014-Jul-29 23:00 012 1 gusting 3 20.6
2014-Jul-29 22:45 351 0 gusting 2 21.1
2014-Jul-29 22:30 013 1 gusting 3 21.1
2014-Jul-29 22:15 038 1 gusting 2 21.1
2014-Jul-29 22:00 037 0 gusting 2 21.1
2014-Jul-29 21:45 038 0 gusting 2 21.1
2014-Jul-29 21:30 038 1 gusting 3 21.1
2014-Jul-29 21:15 037 1 gusting 3 21.1
2014-Jul-29 21:00 045 1 gusting 2 21.1
2014-Jul-29 20:45 349 0 gusting 1 21.7
2014-Jul-29 20:30 21.7
2014-Jul-29 20:15 21.7
2014-Jul-29 20:00 233 21.7
2014-Jul-29 19:45 210 22.2
2014-Jul-29 19:30 206 1 gusting 4 22.2
2014-Jul-29 19:15 169 2 gusting 6 22.8
2014-Jul-29 19:00 168 2 gusting 6 22.8
2014-Jul-29 18:45 195 3 gusting 6 23.3
2014-Jul-29 18:30 164 3 gusting 7 23.3
2014-Jul-29 18:15 195 3 gusting 6 23.3
2014-Jul-29 18:00 196 3 gusting 7 23.3
2014-Jul-29 17:45 182 4 gusting 7 23.9
2014-Jul-29 17:30 166 5 gusting 10 24.4
2014-Jul-29 17:15 184 5 gusting 12 24.4
2014-Jul-29 17:00 192 5 gusting 8 24.4
2014-Jul-29 16:45 219 5 gusting 11 25.0
2014-Jul-29 16:30 204 6 gusting 13 24.4
2014-Jul-29 16:15 189 5 gusting 10 25.0
2014-Jul-29 16:00 204 5 gusting 10 25.6
2014-Jul-29 15:45 198 5 gusting 11 25.0
2014-Jul-29 15:30 189 5 gusting 10 25.0
2014-Jul-29 15:15 184 6 gusting 10 25.0
2014-Jul-29 15:00 186 6 gusting 13 25.6